Terminal Aerodrome Forecast
Issued by NWS Mt. Holly, NJ

Home | Current Version | Previous Version | Text Only | Print | Product List | Glossary On
Versions: 1 2 3 4 5 6 7 8 9 10 11 12 13 14 15 16 17 18 19 20
043
FTUS41 KPHI 261006 AAB
TAFTTN
TAF AMD
KTTN 261006Z 2610/2706 32006KT P6SM SCT250
      TEMPO 2610/2612 4SM BR SCT005
     FM261500 30008KT P6SM SCT050
     FM270000 VRB03KT P6SM SCT250=

USA.gov is the U.S. government's official web portal to all federal, state and local government web resources and services.